Time;durP1;ratioP1;P1;durP2;ratioP2;P2;SDS_P1;SDS_P2;PMS_P1;PMS_P2;Temp;Humidity;BMP_temperature;BMP_pressure;BME280_temperature;BME280_humidity;BME280_pressure;Samples;Min_cycle;Max_cycle;Signal;HPM_P1;HPM_P2
2022/05/02 00:01:36;;;;;;;4.93;3.22;;;12.70;80.40;;;;;;10449607;28;20176;-62
2022/05/02 00:06:36;;;;;;;5.20;2.65;;;12.70;79.90;;;;;;10449825;28;20183;-64
2022/05/02 00:11:37;;;;;;;5.82;3.15;;;12.70;79.90;;;;;;10454272;28;20045;-62
2022/05/02 00:16:39;;;;;;;4.40;3.20;;;12.60;79.90;;;;;;10449355;28;20035;-63
2022/05/02 00:21:39;;;;;;;5.82;3.05;;;12.60;80.00;;;;;;10448877;28;20032;-63
2022/05/02 00:26:41;;;;;;;7.15;2.78;;;12.60;79.90;;;;;;10449063;28;20044;-57
2022/05/02 00:31:42;;;;;;;4.55;2.90;;;12.50;79.90;;;;;;10449719;28;20064;-61
2022/05/02 00:36:43;;;;;;;4.15;3.00;;;12.50;79.90;;;;;;10447993;28;20124;-62
2022/05/02 00:41:43;;;;;;;4.97;2.88;;;12.50;79.90;;;;;;10450018;28;20376;-61
2022/05/02 00:46:45;;;;;;;6.32;3.20;;;12.40;79.80;;;;;;10448062;28;20033;-61
2022/05/02 00:51:45;;;;;;;3.60;2.40;;;12.40;79.80;;;;;;10454004;28;20071;-63
2022/05/02 00:56:47;;;;;;;5.15;2.97;;;12.40;79.80;;;;;;10448929;28;20128;-61
2022/05/02 01:01:47;;;;;;;4.28;3.10;;;12.40;79.80;;;;;;10447977;28;20159;-61
2022/05/02 01:12:10;;;;;;;5.20;3.00;;;12.30;79.80;;;;;;10447036;28;20122;-62
2022/05/02 01:17:11;;;;;;;3.35;2.63;;;12.30;79.80;;;;;;10447729;28;20029;-62
2022/05/02 01:22:12;;;;;;;3.42;2.50;;;12.30;79.80;;;;;;10446559;28;20025;-62
2022/05/02 01:27:14;;;;;;;4.97;2.65;;;12.30;79.90;;;;;;10446051;28;20060;-60
2022/05/02 01:32:16;;;;;;;4.97;3.17;;;12.20;79.80;;;;;;10446194;28;20033;-62
2022/05/02 01:37:16;;;;;;;4.18;3.03;;;12.20;79.80;;;;;;10445321;28;20411;-62
2022/05/02 01:42:17;;;;;;;4.85;2.72;;;12.20;79.90;;;;;;10445872;28;20025;-62
2022/05/02 01:47:18;;;;;;;6.05;2.47;;;12.20;79.90;;;;;;10445016;28;20135;-60
2022/05/02 01:52:19;;;;;;;5.47;3.00;;;12.20;79.90;;;;;;10445259;28;20040;-60
2022/05/02 01:57:19;;;;;;;4.65;3.55;;;12.10;79.90;;;;;;10434788;28;20499;-61
2022/05/02 02:02:20;;;;;;;4.53;3.03;;;12.10;79.90;;;;;;10444997;28;20013;-63
2022/05/02 02:07:21;;;;;;;4.22;2.92;;;12.10;79.90;;;;;;10444475;28;20530;-62
2022/05/02 02:12:21;;;;;;;5.05;2.90;;;12.10;79.90;;;;;;10440294;28;20511;-60
2022/05/02 02:17:22;;;;;;;5.65;3.35;;;12.00;79.80;;;;;;10444337;28;20082;-62
2022/05/02 02:22:24;;;;;;;5.10;2.95;;;12.00;79.90;;;;;;10449793;28;20028;-62
2022/05/02 02:27:24;;;;;;;4.88;2.90;;;11.90;79.80;;;;;;10444192;28;20534;-59
2022/05/02 02:32:26;;;;;;;5.10;2.92;;;11.90;79.80;;;;;;10444104;28;20032;-60
2022/05/02 02:37:26;;;;;;;6.15;3.25;;;11.90;79.90;;;;;;10444059;28;20043;-61
2022/05/02 02:42:27;;;;;;;4.53;2.78;;;11.90;79.80;;;;;;10444041;28;20035;-62
2022/05/02 02:47:29;;;;;;;4.47;3.17;;;11.90;79.80;;;;;;10443594;28;20037;-61
2022/05/02 02:52:29;;;;;;;3.97;2.65;;;11.80;79.70;;;;;;10443793;28;20032;-59
2022/05/02 02:57:30;;;;;;;5.10;2.90;;;11.80;79.80;;;;;;10447734;28;20021;-61
2022/05/02 03:02:31;;;;;;;5.25;3.00;;;11.80;79.70;;;;;;10451542;28;20430;-62
2022/05/02 03:07:32;;;;;;;5.00;3.50;;;11.80;79.70;;;;;;10451358;28;20033;-60
2022/05/02 03:12:32;;;;;;;4.30;2.95;;;11.70;79.60;;;;;;10451225;28;20055;-62
2022/05/02 03:17:33;;;;;;;6.30;3.45;;;11.70;79.60;;;;;;10450757;28;20029;-61
2022/05/02 03:22:34;;;;;;;5.00;3.22;;;11.70;79.60;;;;;;10433293;28;20115;-61
2022/05/02 03:27:34;;;;;;;4.65;3.05;;;11.70;79.50;;;;;;10450666;28;20384;-61
2022/05/02 03:32:35;;;;;;;5.55;3.42;;;11.70;79.50;;;;;;10450982;28;20380;-61
2022/05/02 03:37:36;;;;;;;5.07;3.17;;;11.60;79.40;;;;;;10450380;28;20561;-59
2022/05/02 03:42:37;;;;;;;4.07;2.85;;;11.60;79.40;;;;;;10450315;28;20024;-61
2022/05/02 03:47:38;;;;;;;5.65;3.45;;;11.50;79.30;;;;;;10449841;28;20454;-61
2022/05/02 03:52:39;;;;;;;5.95;3.35;;;11.50;79.30;;;;;;10456145;28;20287;-58
2022/05/02 03:57:40;;;;;;;5.35;3.30;;;11.50;79.30;;;;;;10449942;28;20029;-61
2022/05/02 04:02:41;;;;;;;6.22;3.20;;;11.50;79.20;;;;;;10449768;28;20116;-58
2022/05/02 04:07:42;;;;;;;5.45;3.40;;;11.50;79.20;;;;;;10448176;28;20068;-56
2022/05/02 04:12:42;;;;;;;4.47;3.10;;;11.50;79.10;;;;;;10448821;28;20052;-56
2022/05/02 04:17:43;;;;;;;6.18;3.25;;;11.40;79.00;;;;;;10449081;28;20105;-57
2022/05/02 04:22:44;;;;;;;4.15;3.15;;;11.40;79.10;;;;;;10449434;28;20115;-58
2022/05/02 04:27:45;;;;;;;5.13;3.50;;;11.40;79.00;;;;;;10450441;28;20049;-57
2022/05/02 04:32:46;;;;;;;4.95;3.67;;;11.70;79.10;;;;;;10451738;28;20020;-56
2022/05/02 04:37:46;;;;;;;5.88;4.00;;;11.40;78.90;;;;;;10454642;28;20508;-63
2022/05/02 04:42:47;;;;;;;6.80;4.22;;;11.30;78.90;;;;;;10453279;28;20041;-61
2022/05/02 04:47:48;;;;;;;7.95;3.92;;;11.30;78.90;;;;;;10449745;28;20037;-59
2022/05/02 04:52:48;;;;;;;5.35;3.78;;;11.30;78.90;;;;;;10448230;28;20399;-60
2022/05/02 04:57:49;;;;;;;6.57;3.80;;;11.30;78.90;;;;;;10444083;28;20270;-60
2022/05/02 05:02:50;;;;;;;7.72;4.13;;;11.30;78.90;;;;;;10448636;28;20031;-59
2022/05/02 05:07:50;;;;;;;7.40;4.00;;;11.30;78.80;;;;;;10448989;28;20575;-61
2022/05/02 05:13:07;;;;;;;7.90;4.20;;;11.30;78.80;;;;;;10446066;28;20128;-57
2022/05/02 05:18:25;;;;;;;7.13;4.13;;;11.30;78.80;;;;;;10446692;28;20029;-60
2022/05/02 05:23:41;;;;;;;5.30;3.50;;;11.20;78.70;;;;;;10446978;28;20479;-60
2022/05/02 05:28:50;;;;;;;5.78;3.33;;;11.20;78.70;;;;;;10439508;28;20638;-57
2022/05/02 05:34:03;;;;;;;6.68;4.05;;;11.30;78.70;;;;;;10444260;28;20023;-60
2022/05/02 05:39:06;;;;;;;6.03;4.18;;;11.30;78.70;;;;;;10444985;28;20290;-61
2022/05/02 05:44:22;;;;;;;5.45;3.88;;;11.30;78.70;;;;;;10445142;28;20047;-60
2022/05/02 05:49:40;;;;;;;7.43;4.22;;;11.30;78.70;;;;;;10449449;28;20047;-59
2022/05/02 05:54:59;;;;;;;;;;;11.30;78.70;;;;;;10438012;28;20098;-59
2022/05/02 06:00:11;;;;;;;6.78;3.92;;;11.30;78.90;;;;;;10441912;28;19905;-62
2022/05/02 06:05:13;;;;;;;7.57;3.97;;;11.30;78.60;;;;;;10441689;28;20040;-61
2022/05/02 06:10:16;;;;;;;6.07;3.70;;;11.30;78.60;;;;;;10441144;28;20032;-61
2022/05/02 06:20:51;;;;;;;6.80;3.85;;;11.30;78.60;;;;;;10408606;28;20043;-61
2022/05/02 06:25:55;;;;;;;7.38;4.18;;;11.40;78.70;;;;;;10445009;28;20037;-61
2022/05/02 06:31:00;;;;;;;6.32;3.90;;;11.40;78.70;;;;;;10442198;28;20040;-61
2022/05/02 06:36:23;;;;;;;5.82;4.03;;;11.40;78.70;;;;;;10444768;28;20025;-61
2022/05/02 06:41:43;;;;;;;5.57;3.45;;;11.40;78.70;;;;;;10443982;28;20039;-61
2022/05/02 06:47:28;;;;;;;7.38;3.70;;;11.40;78.70;;;;;;10437921;28;20041;-61
2022/05/02 06:52:39;;;;;;;6.40;4.03;;;11.40;78.80;;;;;;10421924;28;20021;-62
2022/05/02 06:58:08;;;;;;;6.07;3.75;;;11.50;78.70;;;;;;10441020;28;20109;-61
2022/05/02 07:03:22;;;;;;;4.93;3.53;;;11.50;78.70;;;;;;10439322;28;20387;-60
2022/05/02 07:08:28;;;;;;;5.75;3.70;;;11.60;78.70;;;;;;10442227;28;20036;-62
2022/05/02 07:13:59;;;;;;;4.93;3.75;;;11.60;78.70;;;;;;10443876;28;20426;-62
2022/05/02 07:19:26;;;;;;;5.35;3.40;;;11.60;78.80;;;;;;10450726;28;20375;-62
2022/05/02 07:24:51;;;;;;;6.65;3.80;;;11.60;78.90;;;;;;10440234;28;20376;-59
2022/05/02 07:29:58;;;;;;;5.90;3.17;;;11.70;78.70;;;;;;10438444;28;20368;-60
2022/05/02 07:35:00;;;;;;;6.03;3.67;;;11.70;78.60;;;;;;10442113;28;20028;-60
2022/05/02 07:40:05;;;;;;;5.97;3.53;;;11.80;78.70;;;;;;10441839;28;20025;-62
2022/05/02 07:45:10;;;;;;;4.90;3.28;;;11.80;78.60;;;;;;10448326;28;20044;-59
2022/05/02 07:50:13;;;;;;;3.90;2.58;;;11.80;78.60;;;;;;10449033;28;20036;-62
2022/05/02 07:55:16;;;;;;;4.80;3.00;;;11.90;78.60;;;;;;10447449;28;20044;-60
2022/05/02 08:00:17;;;;;;;4.78;2.80;;;11.90;78.60;;;;;;10447893;28;20091;-59
2022/05/02 08:05:21;;;;;;;4.15;2.72;;;12.00;78.70;;;;;;10448025;28;20399;-58
2022/05/02 08:10:40;;;;;;;4.82;2.75;;;12.00;79.20;;;;;;10447823;28;20036;-55
2022/05/02 08:16:01;;;;;;;3.85;2.92;;;12.10;78.90;;;;;;10441586;28;20076;-56
2022/05/02 08:21:20;;;;;;;3.80;2.65;;;12.10;78.70;;;;;;10446505;28;20103;-56
2022/05/02 08:32:22;;;;;;;5.13;3.38;;;12.20;78.90;;;;;;10448073;28;20142;-55
2022/05/02 08:37:43;;;;;;;3.90;2.58;;;12.30;78.90;;;;;;10447689;28;20062;-56
2022/05/02 08:43:03;;;;;;;5.75;2.55;;;12.30;78.80;;;;;;10447067;28;20394;-56
2022/05/02 08:48:22;;;;;;;4.07;2.78;;;12.40;78.90;;;;;;10446805;28;20106;-56
2022/05/02 08:53:38;;;;;;;4.93;3.10;;;12.40;78.60;;;;;;10446388;28;20033;-57
2022/05/02 08:58:42;;;;;;;4.18;2.90;;;12.40;78.60;;;;;;10447674;28;20078;-56
2022/05/02 09:04:01;;;;;;;4.72;2.88;;;12.50;78.50;;;;;;10446619;28;20106;-56
2022/05/02 09:09:24;;;;;;;4.40;2.75;;;12.60;78.60;;;;;;10447140;28;20067;-57
2022/05/02 09:14:31;;;;;;;4.40;2.83;;;12.70;78.40;;;;;;10447091;28;20102;-56
2022/05/02 09:19:32;;;;;;;6.22;3.38;;;12.70;78.20;;;;;;10445504;28;20434;-56
2022/05/02 09:25:03;;;;;;;5.72;3.10;;;12.80;78.10;;;;;;10442564;28;20052;-57
2022/05/02 09:30:07;;;;;;;7.45;3.40;;;12.80;78.10;;;;;;10443570;28;20402;-56
2022/05/02 09:35:32;;;;;;;4.82;3.38;;;12.90;78.00;;;;;;10439399;28;20039;-57
2022/05/02 09:40:35;;;;;;;5.97;3.65;;;13.00;78.00;;;;;;10444772;28;20147;-57
2022/05/02 09:51:35;;;;;;;6.05;3.30;;;13.10;77.50;;;;;;10439716;28;20060;-56
2022/05/02 09:56:45;;;;;;;5.63;3.70;;;13.20;77.40;;;;;;10443635;28;20029;-54
2022/05/02 10:01:48;;;;;;;6.15;3.53;;;13.20;77.30;;;;;;10443352;28;20031;-57
2022/05/02 10:06:53;;;;;;;5.85;3.65;;;13.20;77.40;;;;;;10440639;28;20713;-54
2022/05/02 10:12:07;;;;;;;5.82;3.47;;;13.20;77.50;;;;;;10442227;28;20043;-56
2022/05/02 10:17:17;;;;;;;4.57;3.10;;;13.30;77.60;;;;;;10443072;28;20254;-55
2022/05/02 10:22:28;;;;;;;4.75;3.15;;;13.30;77.40;;;;;;10442199;28;20379;-57
2022/05/02 10:27:57;;;;;;;5.47;3.15;;;13.40;77.30;;;;;;10440551;28;20480;-56
2022/05/02 10:33:03;;;;;;;4.13;3.28;;;13.50;76.90;;;;;;10442578;28;20036;-56
2022/05/02 10:38:04;;;;;;;5.25;3.40;;;13.60;76.90;;;;;;10442131;28;20039;-56
2022/05/02 10:43:10;;;;;;;4.05;3.08;;;13.70;76.80;;;;;;10442899;28;20438;-57
2022/05/02 10:48:25;;;;;;;5.05;3.30;;;13.70;76.60;;;;;;10439682;28;20135;-56
2022/05/02 10:53:56;;;;;;;6.25;3.30;;;13.80;76.50;;;;;;10442848;28;20020;-57
2022/05/02 10:59:01;;;;;;;4.25;3.25;;;13.90;76.10;;;;;;10438034;28;20116;-58
2022/05/02 11:04:33;;;;;;;6.35;3.50;;;14.00;76.00;;;;;;10442273;28;20076;-56
2022/05/02 11:09:56;;;;;;;4.32;3.35;;;14.10;76.30;;;;;;10439254;28;20056;-57
2022/05/02 11:15:07;;;;;;;6.15;3.20;;;14.20;76.10;;;;;;10437615;28;20048;-57
2022/05/02 11:20:41;;;;;;;4.55;3.05;;;14.30;75.40;;;;;;10447505;28;20049;-57
2022/05/02 11:26:32;;;;;;;3.78;2.80;;;14.30;75.30;;;;;;10448622;28;20477;-53
2022/05/02 11:31:36;;;;;;;4.40;2.80;;;14.40;75.00;;;;;;10443598;28;20027;-56
2022/05/02 11:36:43;;;;;;;4.75;3.00;;;14.50;75.20;;;;;;10447919;28;20118;-56
2022/05/02 11:41:47;;;;;;;4.20;2.78;;;14.50;75.00;;;;;;10447591;28;20411;-57
2022/05/02 11:46:55;;;;;;;4.88;2.53;;;14.60;75.10;;;;;;10445777;28;20041;-57
2022/05/02 11:51:58;;;;;;;9.53;5.33;;;14.70;74.90;;;;;;10447296;28;20021;-54
2022/05/02 11:57:25;;;;;;;6.25;4.45;;;14.90;73.20;;;;;;10444536;28;20037;-56
2022/05/02 12:02:38;;;;;;;7.65;4.35;;;15.10;69.70;;;;;;10445801;28;20043;-56
2022/05/02 12:07:43;;;;;;;7.20;3.92;;;15.30;69.90;;;;;;10445873;28;20033;-56
2022/05/02 12:12:51;;;;;;;7.63;4.40;;;15.60;69.40;;;;;;10446317;28;20095;-52
2022/05/02 12:18:04;;;;;;;5.90;3.83;;;15.80;68.30;;;;;;10442845;28;20460;-55
2022/05/02 12:23:16;;;;;;;7.07;4.93;;;15.90;67.70;;;;;;10446581;28;20083;-54
2022/05/02 12:28:19;;;;;;;8.02;4.70;;;15.90;67.70;;;;;;10445700;28;20152;-51
2022/05/02 12:33:21;;;;;;;8.55;4.90;;;16.00;66.90;;;;;;10446488;28;20021;-55
2022/05/02 12:38:28;;;;;;;8.70;5.45;;;16.10;66.90;;;;;;10447297;28;20025;-54
2022/05/02 12:43:43;;;;;;;18.83;6.15;;;16.30;66.20;;;;;;10449351;28;20124;-57
2022/05/02 12:49:06;;;;;;;8.43;5.00;;;16.50;65.50;;;;;;10463104;28;20041;-52
2022/05/02 12:54:13;;;;;;;6.97;4.78;;;16.80;65.40;;;;;;10448903;28;20017;-54
2022/05/02 13:04:43;;;;;;;8.23;4.72;;;16.90;65.70;;;;;;10445409;28;20029;-54
2022/05/02 13:09:43;;;;;;;7.88;4.65;;;16.80;66.10;;;;;;10445794;28;20045;-54
2022/05/02 13:14:47;;;;;;;7.95;4.78;;;17.00;65.60;;;;;;10425949;28;20041;-52
2022/05/02 13:19:49;;;;;;;7.60;4.20;;;17.30;65.20;;;;;;10404548;28;20026;-53
2022/05/02 13:24:52;;;;;;;8.30;4.80;;;17.30;65.10;;;;;;10403376;28;20029;-53
2022/05/02 13:30:09;;;;;;;7.18;5.13;;;17.00;65.00;;;;;;10404220;28;20036;-54
2022/05/02 13:35:15;;;;;;;17.42;5.05;;;16.50;65.00;;;;;;10396774;28;20499;-52
2022/05/02 13:40:20;;;;;;;8.30;4.07;;;16.20;65.80;;;;;;10403688;28;20113;-54
2022/05/02 13:45:27;;;;;;;7.38;4.88;;;16.20;66.40;;;;;;10403446;28;20034;-55
2022/05/02 13:50:30;;;;;;;12.75;5.15;;;16.70;65.40;;;;;;10406418;28;20040;-51
2022/05/02 13:56:06;;;;;;;7.20;5.15;;;17.30;64.60;;;;;;10402553;28;20037;-51
2022/05/02 14:01:32;;;;;;;7.97;4.60;;;17.70;62.90;;;;;;10401144;28;20807;-55
2022/05/02 14:06:49;;;;;;;5.97;4.15;;;18.00;62.40;;;;;;10407798;28;20633;-54
2022/05/02 14:11:50;;;;;;;7.53;4.20;;;18.30;62.40;;;;;;10411402;28;20041;-53
2022/05/02 14:16:54;;;;;;;7.90;4.85;;;18.00;62.80;;;;;;10442814;28;20086;-54
2022/05/02 14:21:56;;;;;;;9.45;5.25;;;17.60;63.10;;;;;;10440493;28;20112;-51
2022/05/02 14:26:58;;;;;;;8.98;4.05;;;18.00;63.20;;;;;;10440656;28;20202;-54
2022/05/02 14:32:05;;;;;;;6.22;4.40;;;17.90;62.40;;;;;;10436947;28;20032;-54
2022/05/02 14:37:10;;;;;;;6.50;4.32;;;17.50;62.70;;;;;;10439675;28;20159;-51
2022/05/02 14:42:12;;;;;;;7.40;4.00;;;17.30;63.50;;;;;;10440186;28;20101;-53
2022/05/02 14:47:16;;;;;;;5.43;3.60;;;17.10;63.70;;;;;;10440107;28;20082;-52
2022/05/02 14:52:19;;;;;;;7.15;3.83;;;17.30;63.10;;;;;;10443281;28;20044;-54
2022/05/02 14:57:23;;;;;;;8.13;3.92;;;17.40;62.80;;;;;;10449951;28;20021;-51
2022/05/02 15:02:27;;;;;;;9.43;4.97;;;17.30;62.60;;;;;;10450137;28;20403;-53
2022/05/02 15:07:56;;;;;;;7.45;3.85;;;17.10;62.60;;;;;;10449211;28;20057;-51
2022/05/02 15:13:08;;;;;;;5.38;3.70;;;17.00;61.80;;;;;;10448028;28;20558;-53
2022/05/02 15:18:41;;;;;;;7.82;3.67;;;16.80;62.90;;;;;;10448465;28;20040;-51
2022/05/02 15:23:42;;;;;;;6.78;4.30;;;16.70;62.40;;;;;;10442516;28;20017;-53
2022/05/02 15:39:44;;;;;;;5.47;3.83;;;17.70;61.80;;;;;;10448305;28;20044;-54
2022/05/02 15:44:50;;;;;;;7.82;3.72;;;17.80;61.50;;;;;;10446994;28;20025;-52
2022/05/02 15:49:59;;;;;;;6.30;4.18;;;17.70;61.70;;;;;;10447962;28;20044;-52
2022/05/02 15:55:07;;;;;;;7.32;4.22;;;17.60;61.10;;;;;;10447172;28;20029;-54
2022/05/02 16:00:16;;;;;;;8.05;4.63;;;17.50;61.50;;;;;;10446813;28;20037;-53
2022/05/02 16:05:16;;;;;;;6.78;4.10;;;17.40;61.60;;;;;;10447429;28;20043;-51
2022/05/02 16:10:38;;;;;;;6.00;4.20;;;17.30;62.00;;;;;;10447859;28;20043;-52
2022/05/02 16:15:43;;;;;;;6.97;3.55;;;17.20;61.70;;;;;;10448564;28;20442;-51
2022/05/02 16:20:45;;;;;;;6.15;3.63;;;17.20;62.30;;;;;;10448183;28;20029;-54
2022/05/02 16:25:54;;;;;;;6.88;3.88;;;17.10;62.50;;;;;;10447553;28;20056;-53
2022/05/02 16:31:04;;;;;;;5.70;3.45;;;17.00;62.40;;;;;;10448012;28;20075;-53
2022/05/02 16:36:05;;;;;;;6.75;3.47;;;17.00;62.50;;;;;;10448557;28;20028;-53
2022/05/02 16:41:14;;;;;;;5.47;3.45;;;16.90;63.20;;;;;;10445326;28;20041;-55
2022/05/02 16:46:23;;;;;;;4.03;3.13;;;16.70;64.40;;;;;;10445043;28;20469;-53
2022/05/02 16:51:25;;;;;;;5.80;3.47;;;16.60;65.70;;;;;;10444818;28;20029;-53
2022/05/02 16:56:27;;;;;;;5.43;3.92;;;16.40;66.40;;;;;;10447466;28;20041;-54
2022/05/02 17:01:28;;;;;;;6.05;3.58;;;16.30;67.20;;;;;;10446996;28;20419;-51
2022/05/02 17:06:29;;;;;;;6.65;3.80;;;16.20;67.90;;;;;;10445645;28;20045;-56
2022/05/02 17:11:30;;;;;;;7.57;3.40;;;16.10;68.40;;;;;;10445714;28;20483;-56
2022/05/02 17:16:31;;;;;;;6.22;2.80;;;16.30;68.60;;;;;;10445354;28;20151;-55
2022/05/02 17:21:34;;;;;;;6.32;2.50;;;16.40;68.50;;;;;;10442602;28;20049;-57
2022/05/02 17:26:43;;;;;;;5.45;2.58;;;16.50;68.80;;;;;;10437971;28;20047;-56
2022/05/02 17:31:55;;;;;;;5.90;2.40;;;16.60;69.20;;;;;;10442065;28;20044;-56
2022/05/02 17:36:59;;;;;;;2.90;2.10;;;16.70;69.30;;;;;;10444080;28;20087;-55
2022/05/02 17:42:05;;;;;;;3.15;1.80;;;16.70;69.40;;;;;;10443855;28;20032;-56
2022/05/02 17:47:09;;;;;;;2.90;1.88;;;16.70;69.50;;;;;;10441746;28;20075;-57
2022/05/02 17:52:10;;;;;;;4.03;2.17;;;16.70;69.60;;;;;;10442383;28;20075;-56
2022/05/02 17:57:16;;;;;;;2.72;1.77;;;16.70;69.80;;;;;;10441321;28;20044;-57
2022/05/02 18:02:17;;;;;;;4.05;2.60;;;16.70;70.10;;;;;;10435482;28;20036;-58
2022/05/02 18:07:17;;;;;;;4.35;2.00;;;16.70;69.90;;;;;;10431530;28;20380;-60
2022/05/02 18:12:28;;;;;;;7.32;2.05;;;16.60;70.20;;;;;;10442502;28;20099;-60
2022/05/02 18:17:52;;;;;;;7.05;1.90;;;16.60;70.40;;;;;;10443008;28;20032;-60
2022/05/02 18:23:01;;;;;;;3.10;1.88;;;16.60;70.70;;;;;;10443734;28;20029;-60
2022/05/02 18:28:15;;;;;;;3.80;1.90;;;16.50;70.90;;;;;;10441620;28;20060;-60
2022/05/02 18:33:28;;;;;;;3.50;1.73;;;16.50;71.20;;;;;;10441251;28;20386;-54
2022/05/02 18:38:50;;;;;;;3.88;1.77;;;16.40;71.20;;;;;;10438988;28;20029;-55
2022/05/02 18:44:05;;;;;;;2.65;1.65;;;16.40;71.30;;;;;;10443304;28;20139;-56
2022/05/02 18:54:29;;;;;;;3.72;1.60;;;16.30;71.50;;;;;;10442611;28;20041;-58
2022/05/02 18:59:30;;;;;;;2.38;1.60;;;16.20;71.50;;;;;;10442897;28;20574;-58
2022/05/02 19:04:38;;;;;;;3.92;1.50;;;16.20;71.50;;;;;;10442896;28;20033;-59
2022/05/02 19:09:44;;;;;;;3.00;1.90;;;16.20;71.70;;;;;;10441604;28;20452;-58
2022/05/02 19:14:45;;;;;;;2.92;1.40;;;16.10;71.60;;;;;;10446049;28;20187;-54
2022/05/02 19:19:46;;;;;;;4.38;1.58;;;16.00;71.60;;;;;;10432987;28;20108;-63
2022/05/02 19:24:55;;;;;;;4.65;1.73;;;16.00;71.60;;;;;;10437229;28;20090;-62
2022/05/02 19:30:03;;;;;;;2.63;1.25;;;16.00;71.60;;;;;;10431710;28;20618;-61
2022/05/02 19:40:30;;;;;;;2.10;1.10;;;15.90;71.50;;;;;;10443990;28;20017;-59
2022/05/02 19:45:37;;;;;;;4.55;1.25;;;15.80;71.40;;;;;;10444736;28;20194;-57
2022/05/02 19:50:44;;;;;;;1.70;1.27;;;15.70;71.30;;;;;;10450704;28;20063;-62
2022/05/02 19:55:49;;;;;;;1.85;1.08;;;15.70;71.30;;;;;;10462504;28;20043;-61
2022/05/02 20:00:50;;;;;;;1.65;1.00;;;15.70;71.20;;;;;;10437650;28;20025;-59
2022/05/02 20:05:50;;;;;;;3.20;0.90;;;15.60;71.10;;;;;;10418647;28;20133;-55
2022/05/02 20:10:51;;;;;;;1.50;1.10;;;15.60;71.10;;;;;;10431286;28;20581;-58
2022/05/02 20:15:52;;;;;;;1.55;0.95;;;15.50;71.00;;;;;;10451577;28;20041;-54
2022/05/02 20:20:53;;;;;;;1.00;0.82;;;15.50;71.00;;;;;;10448263;28;20046;-59
2022/05/02 20:25:54;;;;;;;1.58;1.00;;;15.40;70.90;;;;;;10452482;28;20499;-55
2022/05/02 20:30:55;;;;;;;1.42;0.80;;;15.40;70.90;;;;;;10441978;28;20025;-55
2022/05/02 20:41:20;;;;;;;2.42;1.33;;;15.30;70.80;;;;;;10439446;28;20061;-59
2022/05/02 20:46:23;;;;;;;1.25;0.90;;;15.20;70.70;;;;;;10444535;28;20553;-59
2022/05/02 20:51:26;;;;;;;2.13;0.98;;;15.20;70.60;;;;;;10432091;28;20056;-59
2022/05/02 20:56:29;;;;;;;3.90;1.10;;;15.20;70.60;;;;;;10446428;28;20364;-56
2022/05/02 21:01:30;;;;;;;2.15;0.90;;;15.10;70.50;;;;;;10430332;28;20104;-66
2022/05/02 21:06:31;;;;;;;1.20;0.90;;;15.10;70.50;;;;;;10421598;28;20037;-58
2022/05/02 21:11:57;;;;;;;2.53;1.13;;;15.00;70.40;;;;;;10434017;28;20020;-56
2022/05/02 21:17:11;;;;;;;1.45;0.93;;;15.00;70.40;;;;;;10444596;28;20041;-55
2022/05/02 21:22:40;;;;;;;2.65;1.17;;;14.90;70.30;;;;;;10445380;28;20303;-57
2022/05/02 21:28:16;;;;;;;1.73;1.20;;;14.90;70.30;;;;;;10414867;28;20549;-55
2022/05/02 21:33:19;;;;;;;1.48;1.08;;;14.80;70.30;;;;;;10445052;28;20041;-58
2022/05/02 21:38:25;;;;;;;2.15;1.35;;;14.80;70.50;;;;;;10445864;28;20025;-58
2022/05/02 21:43:26;;;;;;;3.15;1.23;;;14.70;70.40;;;;;;10448762;28;20032;-57
2022/05/02 21:48:27;;;;;;;1.98;1.17;;;14.70;70.40;;;;;;10432969;28;20033;-58
2022/05/02 21:53:27;;;;;;;2.17;1.30;;;14.70;70.50;;;;;;10452584;28;20028;-57
2022/05/02 21:58:28;;;;;;;1.20;1.10;;;14.60;70.50;;;;;;10448970;28;20049;-58
2022/05/02 22:03:29;;;;;;;1.98;1.35;;;14.60;70.60;;;;;;10443815;28;20019;-57
2022/05/02 22:08:29;;;;;;;4.18;1.13;;;14.60;70.60;;;;;;10444582;28;20396;-56
2022/05/02 22:13:30;;;;;;;1.80;1.15;;;14.50;70.60;;;;;;10444680;28;20045;-58
2022/05/02 22:18:31;;;;;;;1.92;1.40;;;14.50;70.70;;;;;;10444773;28;20036;-56
2022/05/02 22:23:32;;;;;;;1.70;1.08;;;14.40;70.70;;;;;;10444446;28;20025;-53
2022/05/02 22:28:33;;;;;;;1.98;1.23;;;14.40;70.80;;;;;;10444621;28;20029;-58
2022/05/02 22:33:33;;;;;;;2.90;1.40;;;14.40;70.80;;;;;;10443980;28;20025;-58
2022/05/02 22:38:34;;;;;;;3.15;1.08;;;14.30;70.80;;;;;;10444527;28;20059;-58
2022/05/02 22:43:35;;;;;;;1.23;1.02;;;14.30;70.90;;;;;;10444322;28;20025;-56
2022/05/02 22:48:36;;;;;;;1.73;1.52;;;14.30;70.90;;;;;;10444983;28;20513;-55
2022/05/02 22:53:37;;;;;;;2.13;1.60;;;14.20;71.00;;;;;;10444471;28;20025;-57
2022/05/02 22:58:42;;;;;;;2.20;1.38;;;14.20;71.00;;;;;;10444424;28;20037;-53
2022/05/02 23:04:03;;;;;;;3.28;1.33;;;14.20;71.00;;;;;;10444049;28;20063;-55
2022/05/02 23:09:04;;;;;;;1.88;1.33;;;14.10;71.00;;;;;;10442675;28;20069;-56
2022/05/02 23:14:05;;;;;;;1.73;1.30;;;14.10;71.10;;;;;;10446839;28;20056;-55
2022/05/02 23:19:07;;;;;;;2.25;1.35;;;14.00;71.10;;;;;;10450808;28;20029;-56
2022/05/02 23:24:09;;;;;;;3.03;1.63;;;14.00;71.10;;;;;;10450982;28;20039;-58
2022/05/02 23:29:09;;;;;;;2.67;1.58;;;13.90;71.10;;;;;;10450706;28;20603;-57
2022/05/02 23:34:30;;;;;;;2.15;1.38;;;13.90;71.20;;;;;;10450436;28;20033;-56
2022/05/02 23:39:56;;;;;;;2.30;1.33;;;13.90;71.10;;;;;;10450765;28;20111;-57
2022/05/02 23:45:05;;;;;;;2.22;1.63;;;13.90;71.20;;;;;;10440097;28;20044;-57
2022/05/02 23:50:07;;;;;;;2.00;1.58;;;13.80;71.20;;;;;;10449703;28;20084;-56
2022/05/02 23:55:32;;;;;;;2.35;1.25;;;13.80;71.30;;;;;;10450592;28;20387;-57
